sensor_id;sensor_type;location;lat;lon;timestamp;temperature;humidity
21123;DHT22;10719;48.130;11.630;2023-04-06T00:00:50;0.10;99.90
21123;DHT22;10719;48.130;11.630;2023-04-06T00:03:15;0.00;99.90
21123;DHT22;10719;48.130;11.630;2023-04-06T00:05:41;0.10;99.90
21123;DHT22;10719;48.130;11.630;2023-04-06T00:08:07;0.10;99.90
21123;DHT22;10719;48.130;11.630;2023-04-06T00:10:33;0.00;99.90
21123;DHT22;10719;48.130;11.630;2023-04-06T00:12:59;0.00;99.90
21123;DHT22;10719;48.130;11.630;2023-04-06T00:15:25;0.00;99.90
21123;DHT22;10719;48.130;11.630;2023-04-06T00:17:51;-0.10;99.90
21123;DHT22;10719;48.130;11.630;2023-04-06T00:20:17;-0.10;99.90
21123;DHT22;10719;48.130;11.630;2023-04-06T00:22:43;-0.10;99.90
21123;DHT22;10719;48.130;11.630;2023-04-06T00:25:09;-0.20;99.90
21123;DHT22;10719;48.130;11.630;2023-04-06T00:27:36;-0.30;99.90
21123;DHT22;10719;48.130;11.630;2023-04-06T00:30:03;-0.30;99.90
21123;DHT22;10719;48.130;11.630;2023-04-06T00:32:30;-0.40;99.90
21123;DHT22;10719;48.130;11.630;2023-04-06T00:34:56;-0.40;99.90
21123;DHT22;10719;48.130;11.630;2023-04-06T00:37:21;-0.40;99.90
21123;DHT22;10719;48.130;11.630;2023-04-06T00:39:47;-0.40;99.90
21123;DHT22;10719;48.130;11.630;2023-04-06T00:42:13;-0.40;99.90
21123;DHT22;10719;48.130;11.630;2023-04-06T00:44:42;-0.40;99.90
21123;DHT22;10719;48.130;11.630;2023-04-06T00:47:08;-0.40;99.90
21123;DHT22;10719;48.130;11.630;2023-04-06T00:49:34;-0.40;99.90
21123;DHT22;10719;48.130;11.630;2023-04-06T00:52:00;-0.30;99.90
21123;DHT22;10719;48.130;11.630;2023-04-06T00:54:28;-0.30;99.90
21123;DHT22;10719;48.130;11.630;2023-04-06T00:56:53;-0.30;99.90
21123;DHT22;10719;48.130;11.630;2023-04-06T00:59:19;-0.30;99.90
21123;DHT22;10719;48.130;11.630;2023-04-06T01:01:45;-0.40;99.90
21123;DHT22;10719;48.130;11.630;2023-04-06T01:04:11;-0.40;99.90
21123;DHT22;10719;48.130;11.630;2023-04-06T01:06:36;-0.50;99.90
21123;DHT22;10719;48.130;11.630;2023-04-06T01:09:02;-0.50;99.90
21123;DHT22;10719;48.130;11.630;2023-04-06T01:11:28;-0.50;99.90
21123;DHT22;10719;48.130;11.630;2023-04-06T01:13:53;-0.50;99.90
21123;DHT22;10719;48.130;11.630;2023-04-06T01:16:20;-0.50;99.90
21123;DHT22;10719;48.130;11.630;2023-04-06T01:18:45;-0.50;99.90
21123;DHT22;10719;48.130;11.630;2023-04-06T01:21:11;-0.60;99.90
21123;DHT22;10719;48.130;11.630;2023-04-06T01:23:45;-0.50;99.90
21123;DHT22;10719;48.130;11.630;2023-04-06T01:26:14;-0.50;99.90
21123;DHT22;10719;48.130;11.630;2023-04-06T01:28:40;-0.60;99.90
21123;DHT22;10719;48.130;11.630;2023-04-06T01:31:07;-0.70;99.90
21123;DHT22;10719;48.130;11.630;2023-04-06T01:33:33;-0.70;99.90
21123;DHT22;10719;48.130;11.630;2023-04-06T01:35:59;-0.70;99.90
21123;DHT22;10719;48.130;11.630;2023-04-06T01:38:25;-0.70;99.90
21123;DHT22;10719;48.130;11.630;2023-04-06T01:40:52;-0.60;99.90
21123;DHT22;10719;48.130;11.630;2023-04-06T01:43:17;-0.60;99.90
21123;DHT22;10719;48.130;11.630;2023-04-06T01:45:43;-0.70;99.90
21123;DHT22;10719;48.130;11.630;2023-04-06T01:48:09;-0.80;99.90
21123;DHT22;10719;48.130;11.630;2023-04-06T01:50:35;-0.80;99.90
21123;DHT22;10719;48.130;11.630;2023-04-06T01:53:01;-0.80;99.90
21123;DHT22;10719;48.130;11.630;2023-04-06T01:55:27;-0.90;99.90
21123;DHT22;10719;48.130;11.630;2023-04-06T01:57:52;-0.90;99.90
21123;DHT22;10719;48.130;11.630;2023-04-06T02:00:18;-0.90;99.90
21123;DHT22;10719;48.130;11.630;2023-04-06T02:02:44;-0.90;99.90
21123;DHT22;10719;48.130;11.630;2023-04-06T02:05:10;-0.90;99.90
21123;DHT22;10719;48.130;11.630;2023-04-06T02:07:36;-0.90;99.90
21123;DHT22;10719;48.130;11.630;2023-04-06T02:10:03;-1.00;99.90
21123;DHT22;10719;48.130;11.630;2023-04-06T02:12:28;-1.00;99.90
21123;DHT22;10719;48.130;11.630;2023-04-06T02:14:54;-1.00;99.90
21123;DHT22;10719;48.130;11.630;2023-04-06T02:17:20;-1.00;99.90
21123;DHT22;10719;48.130;11.630;2023-04-06T02:19:46;-1.10;99.90
21123;DHT22;10719;48.130;11.630;2023-04-06T02:22:12;-1.00;99.90
21123;DHT22;10719;48.130;11.630;2023-04-06T02:24:37;-1.10;99.90
21123;DHT22;10719;48.130;11.630;2023-04-06T02:27:03;-1.00;99.90
21123;DHT22;10719;48.130;11.630;2023-04-06T02:29:29;-1.10;99.90
21123;DHT22;10719;48.130;11.630;2023-04-06T02:31:54;-1.20;99.90
21123;DHT22;10719;48.130;11.630;2023-04-06T02:34:20;-1.20;99.90
21123;DHT22;10719;48.130;11.630;2023-04-06T02:36:46;-1.20;99.90
21123;DHT22;10719;48.130;11.630;2023-04-06T02:39:12;-1.30;99.90
21123;DHT22;10719;48.130;11.630;2023-04-06T02:41:39;-1.30;99.90
21123;DHT22;10719;48.130;11.630;2023-04-06T02:44:07;-1.30;99.90
21123;DHT22;10719;48.130;11.630;2023-04-06T02:46:34;-1.30;99.90
21123;DHT22;10719;48.130;11.630;2023-04-06T02:48:59;-1.30;99.90
21123;DHT22;10719;48.130;11.630;2023-04-06T02:51:26;-1.20;99.90
21123;DHT22;10719;48.130;11.630;2023-04-06T02:53:52;-1.30;99.90
21123;DHT22;10719;48.130;11.630;2023-04-06T02:56:18;-1.30;99.90
21123;DHT22;10719;48.130;11.630;2023-04-06T02:58:43;-1.30;99.90
21123;DHT22;10719;48.130;11.630;2023-04-06T03:01:09;-1.30;99.90
21123;DHT22;10719;48.130;11.630;2023-04-06T03:03:35;-1.30;99.90
21123;DHT22;10719;48.130;11.630;2023-04-06T03:06:00;-1.20;99.90
21123;DHT22;10719;48.130;11.630;2023-04-06T03:08:26;-1.20;99.90
21123;DHT22;10719;48.130;11.630;2023-04-06T03:10:51;-1.30;99.90
21123;DHT22;10719;48.130;11.630;2023-04-06T03:13:17;-1.30;99.90
21123;DHT22;10719;48.130;11.630;2023-04-06T03:15:43;-1.40;99.90
21123;DHT22;10719;48.130;11.630;2023-04-06T03:18:08;-1.40;99.90
21123;DHT22;10719;48.130;11.630;2023-04-06T03:20:34;-1.50;99.90
21123;DHT22;10719;48.130;11.630;2023-04-06T03:23:00;-1.50;99.90
21123;DHT22;10719;48.130;11.630;2023-04-06T03:25:25;-1.50;99.90
21123;DHT22;10719;48.130;11.630;2023-04-06T03:27:51;-1.50;99.90
21123;DHT22;10719;48.130;11.630;2023-04-06T03:30:17;-1.50;99.90
21123;DHT22;10719;48.130;11.630;2023-04-06T03:32:43;-1.60;99.90
21123;DHT22;10719;48.130;11.630;2023-04-06T03:35:09;-1.50;99.90
21123;DHT22;10719;48.130;11.630;2023-04-06T03:37:35;-1.60;99.90
21123;DHT22;10719;48.130;11.630;2023-04-06T03:40:01;-1.60;99.90
21123;DHT22;10719;48.130;11.630;2023-04-06T03:42:27;-1.60;99.90
21123;DHT22;10719;48.130;11.630;2023-04-06T03:44:52;-1.60;99.90
21123;DHT22;10719;48.130;11.630;2023-04-06T03:47:18;-1.60;99.90
21123;DHT22;10719;48.130;11.630;2023-04-06T03:49:43;-1.60;99.90
21123;DHT22;10719;48.130;11.630;2023-04-06T03:52:09;-1.60;99.90
21123;DHT22;10719;48.130;11.630;2023-04-06T03:54:35;-1.60;99.90
21123;DHT22;10719;48.130;11.630;2023-04-06T03:57:01;-1.60;99.90
21123;DHT22;10719;48.130;11.630;2023-04-06T03:59:27;-1.60;99.90
21123;DHT22;10719;48.130;11.630;2023-04-06T04:01:53;-1.70;99.90
21123;DHT22;10719;48.130;11.630;2023-04-06T04:04:18;-1.60;99.90
21123;DHT22;10719;48.130;11.630;2023-04-06T04:06:44;-1.50;99.90
21123;DHT22;10719;48.130;11.630;2023-04-06T04:09:10;-1.40;99.90
21123;DHT22;10719;48.130;11.630;2023-04-06T04:11:36;-1.50;99.90
21123;DHT22;10719;48.130;11.630;2023-04-06T04:14:01;-1.60;99.90
21123;DHT22;10719;48.130;11.630;2023-04-06T04:16:27;-1.50;99.90
21123;DHT22;10719;48.130;11.630;2023-04-06T04:18:52;-1.50;99.90
21123;DHT22;10719;48.130;11.630;2023-04-06T04:21:18;-1.50;99.90
21123;DHT22;10719;48.130;11.630;2023-04-06T04:23:44;-1.50;99.90
21123;DHT22;10719;48.130;11.630;2023-04-06T04:26:10;-1.50;99.90
21123;DHT22;10719;48.130;11.630;2023-04-06T04:28:36;-1.50;99.90
21123;DHT22;10719;48.130;11.630;2023-04-06T04:31:01;-1.50;99.90
21123;DHT22;10719;48.130;11.630;2023-04-06T04:33:27;-1.50;99.90
21123;DHT22;10719;48.130;11.630;2023-04-06T04:35:52;-1.50;99.90
21123;DHT22;10719;48.130;11.630;2023-04-06T04:38:18;-1.50;99.90
21123;DHT22;10719;48.130;11.630;2023-04-06T04:40:44;-1.60;99.90
21123;DHT22;10719;48.130;11.630;2023-04-06T04:43:09;-1.70;99.90
21123;DHT22;10719;48.130;11.630;2023-04-06T04:45:35;-1.60;99.90
21123;DHT22;10719;48.130;11.630;2023-04-06T04:48:00;-1.70;99.90
21123;DHT22;10719;48.130;11.630;2023-04-06T04:50:26;-1.70;99.90
21123;DHT22;10719;48.130;11.630;2023-04-06T04:52:52;-1.70;99.90
21123;DHT22;10719;48.130;11.630;2023-04-06T04:55:17;-1.70;99.90
21123;DHT22;10719;48.130;11.630;2023-04-06T04:57:43;-1.70;99.90
21123;DHT22;10719;48.130;11.630;2023-04-06T05:00:09;-1.70;99.90
21123;DHT22;10719;48.130;11.630;2023-04-06T05:02:35;-1.70;99.90
21123;DHT22;10719;48.130;11.630;2023-04-06T05:05:01;-1.70;99.90
21123;DHT22;10719;48.130;11.630;2023-04-06T05:07:26;-1.60;99.90
21123;DHT22;10719;48.130;11.630;2023-04-06T05:09:52;-1.60;99.90
21123;DHT22;10719;48.130;11.630;2023-04-06T05:12:19;-1.60;99.90
21123;DHT22;10719;48.130;11.630;2023-04-06T05:14:45;-1.50;99.90
21123;DHT22;10719;48.130;11.630;2023-04-06T05:17:11;-1.50;99.90
21123;DHT22;10719;48.130;11.630;2023-04-06T05:19:36;-1.40;99.90
21123;DHT22;10719;48.130;11.630;2023-04-06T05:22:02;-1.40;99.90
21123;DHT22;10719;48.130;11.630;2023-04-06T05:24:28;-1.30;99.90
21123;DHT22;10719;48.130;11.630;2023-04-06T05:26:54;-1.30;99.90
21123;DHT22;10719;48.130;11.630;2023-04-06T05:29:19;-1.20;99.90
21123;DHT22;10719;48.130;11.630;2023-04-06T05:31:46;-1.10;99.90
21123;DHT22;10719;48.130;11.630;2023-04-06T05:34:12;-1.00;99.90
21123;DHT22;10719;48.130;11.630;2023-04-06T05:36:38;-1.00;99.90
21123;DHT22;10719;48.130;11.630;2023-04-06T05:39:04;-0.90;99.90
21123;DHT22;10719;48.130;11.630;2023-04-06T05:41:29;-0.80;99.90
21123;DHT22;10719;48.130;11.630;2023-04-06T05:43:55;-0.70;99.90
21123;DHT22;10719;48.130;11.630;2023-04-06T05:46:21;-0.50;99.90
21123;DHT22;10719;48.130;11.630;2023-04-06T05:48:47;-0.60;99.90
21123;DHT22;10719;48.130;11.630;2023-04-06T05:51:12;-0.50;99.90
21123;DHT22;10719;48.130;11.630;2023-04-06T05:53:38;-0.50;99.90
21123;DHT22;10719;48.130;11.630;2023-04-06T05:56:05;-0.40;99.90
21123;DHT22;10719;48.130;11.630;2023-04-06T05:58:30;-0.30;99.90
21123;DHT22;10719;48.130;11.630;2023-04-06T06:00:57;-0.30;99.90
21123;DHT22;10719;48.130;11.630;2023-04-06T06:03:23;-0.20;99.90
21123;DHT22;10719;48.130;11.630;2023-04-06T06:05:48;-0.10;99.90
21123;DHT22;10719;48.130;11.630;2023-04-06T06:08:14;0.00;99.90
21123;DHT22;10719;48.130;11.630;2023-04-06T06:10:40;0.10;99.90
21123;DHT22;10719;48.130;11.630;2023-04-06T06:13:05;0.20;99.90
21123;DHT22;10719;48.130;11.630;2023-04-06T06:15:31;0.30;99.90
21123;DHT22;10719;48.130;11.630;2023-04-06T06:17:57;0.40;99.90
21123;DHT22;10719;48.130;11.630;2023-04-06T06:20:23;0.50;99.90
21123;DHT22;10719;48.130;11.630;2023-04-06T06:22:48;0.60;99.90
21123;DHT22;10719;48.130;11.630;2023-04-06T06:25:14;0.70;99.90
21123;DHT22;10719;48.130;11.630;2023-04-06T06:27:41;0.90;99.90
21123;DHT22;10719;48.130;11.630;2023-04-06T06:30:07;0.90;99.90
21123;DHT22;10719;48.130;11.630;2023-04-06T06:32:33;1.10;99.90
21123;DHT22;10719;48.130;11.630;2023-04-06T06:34:59;1.10;99.90
21123;DHT22;10719;48.130;11.630;2023-04-06T06:37:24;1.10;99.90
21123;DHT22;10719;48.130;11.630;2023-04-06T06:39:50;1.30;99.90
21123;DHT22;10719;48.130;11.630;2023-04-06T06:42:16;1.40;99.90
21123;DHT22;10719;48.130;11.630;2023-04-06T06:44:41;1.40;99.90
21123;DHT22;10719;48.130;11.630;2023-04-06T06:47:07;1.60;99.90
21123;DHT22;10719;48.130;11.630;2023-04-06T06:49:32;1.70;99.90
21123;DHT22;10719;48.130;11.630;2023-04-06T06:51:58;1.80;99.90
21123;DHT22;10719;48.130;11.630;2023-04-06T06:54:24;1.90;99.90
21123;DHT22;10719;48.130;11.630;2023-04-06T06:56:49;2.10;99.90
21123;DHT22;10719;48.130;11.630;2023-04-06T06:59:15;2.20;99.90
21123;DHT22;10719;48.130;11.630;2023-04-06T07:01:41;2.40;99.90
21123;DHT22;10719;48.130;11.630;2023-04-06T07:04:07;2.50;99.90
21123;DHT22;10719;48.130;11.630;2023-04-06T07:06:35;2.70;99.90
21123;DHT22;10719;48.130;11.630;2023-04-06T07:09:01;2.80;99.90
21123;DHT22;10719;48.130;11.630;2023-04-06T07:11:29;2.90;99.90
21123;DHT22;10719;48.130;11.630;2023-04-06T07:13:55;3.00;99.90
21123;DHT22;10719;48.130;11.630;2023-04-06T07:16:20;3.20;99.90
21123;DHT22;10719;48.130;11.630;2023-04-06T07:18:46;3.40;99.90
21123;DHT22;10719;48.130;11.630;2023-04-06T07:21:12;3.70;99.90
21123;DHT22;10719;48.130;11.630;2023-04-06T07:23:37;4.00;99.90
21123;DHT22;10719;48.130;11.630;2023-04-06T07:26:03;4.10;99.90
21123;DHT22;10719;48.130;11.630;2023-04-06T07:28:29;4.30;99.90
21123;DHT22;10719;48.130;11.630;2023-04-06T07:30:54;4.50;99.90
21123;DHT22;10719;48.130;11.630;2023-04-06T07:33:20;4.60;99.90
21123;DHT22;10719;48.130;11.630;2023-04-06T07:35:46;4.80;99.90
21123;DHT22;10719;48.130;11.630;2023-04-06T07:38:12;4.90;99.90
21123;DHT22;10719;48.130;11.630;2023-04-06T07:40:37;5.10;99.90
21123;DHT22;10719;48.130;11.630;2023-04-06T07:43:03;5.20;99.90
21123;DHT22;10719;48.130;11.630;2023-04-06T07:45:29;5.30;99.90
21123;DHT22;10719;48.130;11.630;2023-04-06T07:47:55;5.30;99.90
21123;DHT22;10719;48.130;11.630;2023-04-06T07:50:21;5.20;99.90
21123;DHT22;10719;48.130;11.630;2023-04-06T07:52:46;5.20;99.90
21123;DHT22;10719;48.130;11.630;2023-04-06T07:55:12;5.30;99.90
21123;DHT22;10719;48.130;11.630;2023-04-06T07:57:37;5.30;99.90
21123;DHT22;10719;48.130;11.630;2023-04-06T08:00:04;5.50;99.90
21123;DHT22;10719;48.130;11.630;2023-04-06T08:02:33;5.60;99.90
21123;DHT22;10719;48.130;11.630;2023-04-06T08:04:58;5.60;99.90
21123;DHT22;10719;48.130;11.630;2023-04-06T08:07:24;5.70;99.90
21123;DHT22;10719;48.130;11.630;2023-04-06T08:09:50;5.70;99.90
21123;DHT22;10719;48.130;11.630;2023-04-06T08:12:15;5.80;99.90
21123;DHT22;10719;48.130;11.630;2023-04-06T08:14:41;5.90;99.90
21123;DHT22;10719;48.130;11.630;2023-04-06T08:17:07;5.90;99.90
21123;DHT22;10719;48.130;11.630;2023-04-06T08:19:32;6.00;99.90
21123;DHT22;10719;48.130;11.630;2023-04-06T08:21:58;6.30;99.90
21123;DHT22;10719;48.130;11.630;2023-04-06T08:24:25;6.50;99.90
21123;DHT22;10719;48.130;11.630;2023-04-06T08:26:51;6.80;99.90
21123;DHT22;10719;48.130;11.630;2023-04-06T08:29:18;6.90;99.90
21123;DHT22;10719;48.130;11.630;2023-04-06T08:31:44;7.10;99.90
21123;DHT22;10719;48.130;11.630;2023-04-06T08:34:09;7.20;99.90
21123;DHT22;10719;48.130;11.630;2023-04-06T08:36:35;7.20;99.90
21123;DHT22;10719;48.130;11.630;2023-04-06T08:39:01;7.20;99.90
21123;DHT22;10719;48.130;11.630;2023-04-06T08:41:27;7.40;99.90
21123;DHT22;10719;48.130;11.630;2023-04-06T08:43:57;7.60;99.90
21123;DHT22;10719;48.130;11.630;2023-04-06T08:46:24;7.70;99.90
21123;DHT22;10719;48.130;11.630;2023-04-06T08:49:00;7.60;99.90
21123;DHT22;10719;48.130;11.630;2023-04-06T08:51:26;7.20;99.90
21123;DHT22;10719;48.130;11.630;2023-04-06T08:53:53;7.00;99.90
21123;DHT22;10719;48.130;11.630;2023-04-06T08:56:27;7.00;99.90
21123;DHT22;10719;48.130;11.630;2023-04-06T08:58:54;7.20;99.90
21123;DHT22;10719;48.130;11.630;2023-04-06T09:01:21;7.40;99.90
21123;DHT22;10719;48.130;11.630;2023-04-06T09:03:49;7.60;99.90
21123;DHT22;10719;48.130;11.630;2023-04-06T09:06:15;7.80;99.90
21123;DHT22;10719;48.130;11.630;2023-04-06T09:08:41;8.00;99.90
21123;DHT22;10719;48.130;11.630;2023-04-06T09:11:08;8.30;99.90
21123;DHT22;10719;48.130;11.630;2023-04-06T09:13:50;8.30;99.90
21123;DHT22;10719;48.130;11.630;2023-04-06T09:16:17;8.90;99.90
21123;DHT22;10719;48.130;11.630;2023-04-06T09:18:43;10.00;99.90
21123;DHT22;10719;48.130;11.630;2023-04-06T09:21:10;10.70;99.90
21123;DHT22;10719;48.130;11.630;2023-04-06T09:23:35;11.20;99.90
21123;DHT22;10719;48.130;11.630;2023-04-06T09:26:11;12.00;99.90
21123;DHT22;10719;48.130;11.630;2023-04-06T09:28:47;12.50;99.90
21123;DHT22;10719;48.130;11.630;2023-04-06T09:31:25;13.00;99.90
21123;DHT22;10719;48.130;11.630;2023-04-06T09:33:51;14.30;99.90
21123;DHT22;10719;48.130;11.630;2023-04-06T09:36:29;14.60;99.90
21123;DHT22;10719;48.130;11.630;2023-04-06T09:38:57;14.10;99.90
21123;DHT22;10719;48.130;11.630;2023-04-06T09:41:28;14.50;99.90
21123;DHT22;10719;48.130;11.630;2023-04-06T09:44:08;14.80;98.50
21123;DHT22;10719;48.130;11.630;2023-04-06T09:46:36;15.60;97.00
21123;DHT22;10719;48.130;11.630;2023-04-06T09:49:03;16.10;96.70
21123;DHT22;10719;48.130;11.630;2023-04-06T09:51:31;16.30;95.40
21123;DHT22;10719;48.130;11.630;2023-04-06T09:53:58;15.10;96.00
21123;DHT22;10719;48.130;11.630;2023-04-06T09:56:32;14.80;96.50
21123;DHT22;10719;48.130;11.630;2023-04-06T09:59:02;15.90;95.30
21123;DHT22;10719;48.130;11.630;2023-04-06T10:01:32;16.30;94.70
21123;DHT22;10719;48.130;11.630;2023-04-06T10:04:18;16.30;94.80
21123;DHT22;10719;48.130;11.630;2023-04-06T10:06:46;17.30;92.40
21123;DHT22;10719;48.130;11.630;2023-04-06T10:09:18;17.20;91.60
21123;DHT22;10719;48.130;11.630;2023-04-06T10:11:44;16.20;91.70
21123;DHT22;10719;48.130;11.630;2023-04-06T10:14:10;16.20;91.90
21123;DHT22;10719;48.130;11.630;2023-04-06T10:16:37;17.00;92.50
21123;DHT22;10719;48.130;11.630;2023-04-06T10:19:09;16.90;91.10
21123;DHT22;10719;48.130;11.630;2023-04-06T10:21:38;13.90;95.20
21123;DHT22;10719;48.130;11.630;2023-04-06T10:24:08;13.00;95.90
21123;DHT22;10719;48.130;11.630;2023-04-06T10:26:37;12.90;96.50
21123;DHT22;10719;48.130;11.630;2023-04-06T10:29:04;12.90;96.70
21123;DHT22;10719;48.130;11.630;2023-04-06T10:31:30;12.00;96.00
21123;DHT22;10719;48.130;11.630;2023-04-06T10:34:02;12.00;95.80
21123;DHT22;10719;48.130;11.630;2023-04-06T10:36:32;12.10;95.60
21123;DHT22;10719;48.130;11.630;2023-04-06T10:38:59;12.30;97.80
21123;DHT22;10719;48.130;11.630;2023-04-06T10:41:42;12.30;96.30
21123;DHT22;10719;48.130;11.630;2023-04-06T10:44:16;11.80;97.90
21123;DHT22;10719;48.130;11.630;2023-04-06T10:46:52;11.70;96.90
21123;DHT22;10719;48.130;11.630;2023-04-06T10:49:19;11.10;98.00
21123;DHT22;10719;48.130;11.630;2023-04-06T10:51:44;11.90;96.50
21123;DHT22;10719;48.130;11.630;2023-04-06T10:54:11;13.60;94.80
21123;DHT22;10719;48.130;11.630;2023-04-06T10:56:38;15.30;92.20
21123;DHT22;10719;48.130;11.630;2023-04-06T10:59:05;15.60;92.30
21123;DHT22;10719;48.130;11.630;2023-04-06T11:01:31;16.70;91.20
21123;DHT22;10719;48.130;11.630;2023-04-06T11:03:57;15.80;91.80
21123;DHT22;10719;48.130;11.630;2023-04-06T11:06:27;14.60;92.20
21123;DHT22;10719;48.130;11.630;2023-04-06T11:08:55;15.00;92.80
21123;DHT22;10719;48.130;11.630;2023-04-06T11:11:23;16.30;92.30
21123;DHT22;10719;48.130;11.630;2023-04-06T11:16:30;16.90;91.00
21123;DHT22;10719;48.130;11.630;2023-04-06T11:19:00;16.80;90.10
21123;DHT22;10719;48.130;11.630;2023-04-06T11:21:35;17.10;91.60
21123;DHT22;10719;48.130;11.630;2023-04-06T11:24:22;15.80;92.50
21123;DHT22;10719;48.130;11.630;2023-04-06T11:26:50;16.80;92.50
21123;DHT22;10719;48.130;11.630;2023-04-06T11:29:24;17.10;91.30
21123;DHT22;10719;48.130;11.630;2023-04-06T11:31:51;18.00;90.10
21123;DHT22;10719;48.130;11.630;2023-04-06T11:34:19;18.00;91.00
21123;DHT22;10719;48.130;11.630;2023-04-06T11:36:47;18.00;90.70
21123;DHT22;10719;48.130;11.630;2023-04-06T11:39:17;18.10;90.20
21123;DHT22;10719;48.130;11.630;2023-04-06T11:41:47;17.40;90.70
21123;DHT22;10719;48.130;11.630;2023-04-06T11:44:13;16.80;92.30
21123;DHT22;10719;48.130;11.630;2023-04-06T11:46:39;18.10;89.70
21123;DHT22;10719;48.130;11.630;2023-04-06T11:49:05;17.80;89.40
21123;DHT22;10719;48.130;11.630;2023-04-06T11:51:35;17.50;89.70
21123;DHT22;10719;48.130;11.630;2023-04-06T11:54:02;18.20;89.00
21123;DHT22;10719;48.130;11.630;2023-04-06T11:56:30;16.90;89.90
21123;DHT22;10719;48.130;11.630;2023-04-06T11:58:57;15.80;90.40
21123;DHT22;10719;48.130;11.630;2023-04-06T12:01:25;16.60;90.00
21123;DHT22;10719;48.130;11.630;2023-04-06T12:03:52;16.60;91.10
21123;DHT22;10719;48.130;11.630;2023-04-06T12:06:17;16.80;90.90
21123;DHT22;10719;48.130;11.630;2023-04-06T12:08:43;16.30;91.60
21123;DHT22;10719;48.130;11.630;2023-04-06T12:11:10;17.50;91.00
21123;DHT22;10719;48.130;11.630;2023-04-06T12:13:36;18.30;88.10
21123;DHT22;10719;48.130;11.630;2023-04-06T12:16:02;18.40;92.40
21123;DHT22;10719;48.130;11.630;2023-04-06T12:18:28;18.90;88.90
21123;DHT22;10719;48.130;11.630;2023-04-06T12:20:54;18.40;87.70
21123;DHT22;10719;48.130;11.630;2023-04-06T12:23:20;19.00;87.30
21123;DHT22;10719;48.130;11.630;2023-04-06T12:25:46;19.20;87.20
21123;DHT22;10719;48.130;11.630;2023-04-06T12:28:11;18.20;90.40
21123;DHT22;10719;48.130;11.630;2023-04-06T12:30:37;17.90;90.90
21123;DHT22;10719;48.130;11.630;2023-04-06T12:33:03;18.60;89.50
21123;DHT22;10719;48.130;11.630;2023-04-06T12:35:32;18.00;86.90
21123;DHT22;10719;48.130;11.630;2023-04-06T12:37:58;18.40;90.60
21123;DHT22;10719;48.130;11.630;2023-04-06T12:40:24;19.60;89.60
21123;DHT22;10719;48.130;11.630;2023-04-06T12:42:49;18.80;83.90
21123;DHT22;10719;48.130;11.630;2023-04-06T12:45:15;19.10;87.60
21123;DHT22;10719;48.130;11.630;2023-04-06T12:47:41;19.90;87.10
21123;DHT22;10719;48.130;11.630;2023-04-06T12:50:07;21.70;79.60
21123;DHT22;10719;48.130;11.630;2023-04-06T12:52:32;19.90;81.00
21123;DHT22;10719;48.130;11.630;2023-04-06T12:55:03;19.40;88.10
21123;DHT22;10719;48.130;11.630;2023-04-06T12:57:30;21.00;80.30
21123;DHT22;10719;48.130;11.630;2023-04-06T12:59:56;20.70;78.40
21123;DHT22;10719;48.130;11.630;2023-04-06T13:02:22;19.00;80.10
21123;DHT22;10719;48.130;11.630;2023-04-06T13:04:48;16.40;86.50
21123;DHT22;10719;48.130;11.630;2023-04-06T13:07:14;14.50;90.40
21123;DHT22;10719;48.130;11.630;2023-04-06T13:09:40;13.60;92.10
21123;DHT22;10719;48.130;11.630;2023-04-06T13:12:06;14.50;91.40
21123;DHT22;10719;48.130;11.630;2023-04-06T13:14:31;14.60;90.20
21123;DHT22;10719;48.130;11.630;2023-04-06T13:16:57;15.50;90.60
21123;DHT22;10719;48.130;11.630;2023-04-06T13:19:23;15.80;90.50
21123;DHT22;10719;48.130;11.630;2023-04-06T13:21:48;15.90;88.60
21123;DHT22;10719;48.130;11.630;2023-04-06T13:24:14;16.20;90.60
21123;DHT22;10719;48.130;11.630;2023-04-06T13:26:40;16.00;90.20
21123;DHT22;10719;48.130;11.630;2023-04-06T13:29:06;15.70;90.40
21123;DHT22;10719;48.130;11.630;2023-04-06T13:31:32;15.40;88.40
21123;DHT22;10719;48.130;11.630;2023-04-06T13:33:57;14.40;90.00
21123;DHT22;10719;48.130;11.630;2023-04-06T13:36:23;14.10;89.80
21123;DHT22;10719;48.130;11.630;2023-04-06T13:38:50;15.00;92.60
21123;DHT22;10719;48.130;11.630;2023-04-06T13:41:22;16.30;89.20
21123;DHT22;10719;48.130;11.630;2023-04-06T13:43:48;17.10;85.20
21123;DHT22;10719;48.130;11.630;2023-04-06T13:46:14;17.10;85.60
21123;DHT22;10719;48.130;11.630;2023-04-06T13:48:40;15.80;89.50
21123;DHT22;10719;48.130;11.630;2023-04-06T13:51:12;15.20;90.50
21123;DHT22;10719;48.130;11.630;2023-04-06T13:53:39;14.30;90.90
21123;DHT22;10719;48.130;11.630;2023-04-06T13:56:05;13.30;92.10
21123;DHT22;10719;48.130;11.630;2023-04-06T13:58:32;12.90;91.90
21123;DHT22;10719;48.130;11.630;2023-04-06T14:01:07;12.40;92.90
21123;DHT22;10719;48.130;11.630;2023-04-06T14:03:35;12.70;92.70
21123;DHT22;10719;48.130;11.630;2023-04-06T14:06:01;14.20;91.80
21123;DHT22;10719;48.130;11.630;2023-04-06T14:08:27;16.00;89.80
21123;DHT22;10719;48.130;11.630;2023-04-06T14:10:52;17.80;88.30
21123;DHT22;10719;48.130;11.630;2023-04-06T14:13:19;18.80;86.50
21123;DHT22;10719;48.130;11.630;2023-04-06T14:15:45;17.90;84.40
21123;DHT22;10719;48.130;11.630;2023-04-06T14:18:11;17.00;87.50
21123;DHT22;10719;48.130;11.630;2023-04-06T14:20:37;15.90;87.80
21123;DHT22;10719;48.130;11.630;2023-04-06T14:23:02;14.70;90.70
21123;DHT22;10719;48.130;11.630;2023-04-06T14:25:28;14.40;90.90
21123;DHT22;10719;48.130;11.630;2023-04-06T14:27:56;14.00;92.00
21123;DHT22;10719;48.130;11.630;2023-04-06T14:30:22;14.40;91.70
21123;DHT22;10719;48.130;11.630;2023-04-06T14:32:48;14.80;91.60
21123;DHT22;10719;48.130;11.630;2023-04-06T14:35:13;14.90;91.90
21123;DHT22;10719;48.130;11.630;2023-04-06T14:37:39;14.60;92.10
21123;DHT22;10719;48.130;11.630;2023-04-06T14:40:05;14.10;91.50
21123;DHT22;10719;48.130;11.630;2023-04-06T14:42:31;14.60;90.90
21123;DHT22;10719;48.130;11.630;2023-04-06T14:44:57;14.20;91.20
21123;DHT22;10719;48.130;11.630;2023-04-06T14:47:23;13.20;92.20
21123;DHT22;10719;48.130;11.630;2023-04-06T14:49:52;13.00;93.20
21123;DHT22;10719;48.130;11.630;2023-04-06T14:52:18;13.20;92.70
21123;DHT22;10719;48.130;11.630;2023-04-06T14:54:44;13.50;91.80
21123;DHT22;10719;48.130;11.630;2023-04-06T14:57:09;13.80;91.60
21123;DHT22;10719;48.130;11.630;2023-04-06T14:59:35;13.70;91.70
21123;DHT22;10719;48.130;11.630;2023-04-06T15:02:02;13.20;92.30
21123;DHT22;10719;48.130;11.630;2023-04-06T15:04:28;13.30;91.80
21123;DHT22;10719;48.130;11.630;2023-04-06T15:06:54;13.40;92.40
21123;DHT22;10719;48.130;11.630;2023-04-06T15:09:20;13.30;91.60
21123;DHT22;10719;48.130;11.630;2023-04-06T15:11:46;13.20;92.30
21123;DHT22;10719;48.130;11.630;2023-04-06T15:14:11;13.10;92.10
21123;DHT22;10719;48.130;11.630;2023-04-06T15:16:37;12.70;91.90
21123;DHT22;10719;48.130;11.630;2023-04-06T15:19:02;12.70;92.30